sensor_id;sensor_type;location;lat;lon;timestamp;P1;durP1;ratioP1;P2;durP2;ratioP2
13687;SDS011;6916;51.504;7.416;2023-03-01T05:14:44;11.60;;;6.00;;
13687;SDS011;6916;51.504;7.416;2023-03-01T05:24:46;6.60;;;5.90;;
13687;SDS011;6916;51.504;7.416;2023-03-01T05:34:49;8.03;;;6.20;;
13687;SDS011;6916;51.504;7.416;2023-03-01T05:44:51;6.47;;;5.53;;
13687;SDS011;6916;51.504;7.416;2023-03-01T05:54:54;7.30;;;5.80;;
13687;SDS011;6916;51.504;7.416;2023-03-01T06:04:58;7.27;;;5.70;;
13687;SDS011;6916;51.504;7.416;2023-03-01T06:15:01;6.90;;;5.93;;
13687;SDS011;6916;51.504;7.416;2023-03-01T06:25:04;6.60;;;5.70;;
13687;SDS011;6916;51.504;7.416;2023-03-01T06:35:07;7.23;;;6.33;;
13687;SDS011;6916;51.504;7.416;2023-03-01T06:45:12;8.87;;;5.93;;
13687;SDS011;6916;51.504;7.416;2023-03-01T06:55:14;9.43;;;6.27;;
13687;SDS011;6916;51.504;7.416;2023-03-01T07:05:17;8.23;;;6.50;;
13687;SDS011;6916;51.504;7.416;2023-03-01T07:15:19;9.00;;;6.57;;
13687;SDS011;6916;51.504;7.416;2023-03-01T07:25:21;10.13;;;7.40;;
13687;SDS011;6916;51.504;7.416;2023-03-01T07:35:27;9.57;;;6.77;;
13687;SDS011;6916;51.504;7.416;2023-03-01T07:45:29;9.70;;;8.53;;
13687;SDS011;6916;51.504;7.416;2023-03-01T07:55:32;9.30;;;7.87;;
13687;SDS011;6916;51.504;7.416;2023-03-01T08:05:34;14.53;;;7.90;;
13687;SDS011;6916;51.504;7.416;2023-03-01T08:15:37;10.70;;;7.40;;
13687;SDS011;6916;51.504;7.416;2023-03-01T08:25:39;12.17;;;6.93;;
13687;SDS011;6916;51.504;7.416;2023-03-01T08:35:42;8.77;;;6.73;;
13687;SDS011;6916;51.504;7.416;2023-03-01T08:45:44;8.57;;;5.97;;
13687;SDS011;6916;51.504;7.416;2023-03-01T08:55:50;8.03;;;5.60;;
13687;SDS011;6916;51.504;7.416;2023-03-01T09:05:52;5.30;;;4.77;;
13687;SDS011;6916;51.504;7.416;2023-03-01T09:15:55;7.17;;;4.83;;
13687;SDS011;6916;51.504;7.416;2023-03-01T09:25:57;5.53;;;4.93;;
13687;SDS011;6916;51.504;7.416;2023-03-01T09:36:00;6.57;;;4.57;;
13687;SDS011;6916;51.504;7.416;2023-03-01T09:46:05;7.33;;;4.17;;
13687;SDS011;6916;51.504;7.416;2023-03-01T09:56:28;5.50;;;4.50;;
13687;SDS011;6916;51.504;7.416;2023-03-01T10:06:34;7.20;;;4.37;;
13687;SDS011;6916;51.504;7.416;2023-03-01T10:27:09;4.73;;;3.63;;
13687;SDS011;6916;51.504;7.416;2023-03-01T10:37:18;6.07;;;4.10;;
13687;SDS011;6916;51.504;7.416;2023-03-01T10:47:25;6.33;;;4.20;;
13687;SDS011;6916;51.504;7.416;2023-03-01T10:57:30;5.10;;;4.47;;
13687;SDS011;6916;51.504;7.416;2023-03-01T11:07:46;7.70;;;4.10;;
13687;SDS011;6916;51.504;7.416;2023-03-01T11:17:49;5.47;;;4.50;;
13687;SDS011;6916;51.504;7.416;2023-03-01T11:28:02;6.37;;;4.37;;
13687;SDS011;6916;51.504;7.416;2023-03-01T11:38:23;5.83;;;4.57;;
13687;SDS011;6916;51.504;7.416;2023-03-01T11:59:05;7.03;;;4.37;;
13687;SDS011;6916;51.504;7.416;2023-03-01T12:40:50;6.73;;;4.93;;
13687;SDS011;6916;51.504;7.416;2023-03-01T12:51:01;5.57;;;4.43;;
13687;SDS011;6916;51.504;7.416;2023-03-01T13:01:13;5.77;;;4.50;;
13687;SDS011;6916;51.504;7.416;2023-03-01T13:11:40;6.53;;;4.50;;
13687;SDS011;6916;51.504;7.416;2023-03-01T13:21:44;7.97;;;4.80;;
13687;SDS011;6916;51.504;7.416;2023-03-01T13:41:53;5.13;;;3.80;;
13687;SDS011;6916;51.504;7.416;2023-03-01T13:51:56;8.20;;;4.43;;
13687;SDS011;6916;51.504;7.416;2023-03-01T14:02:00;4.87;;;3.97;;
13687;SDS011;6916;51.504;7.416;2023-03-01T14:12:17;6.13;;;3.90;;
13687;SDS011;6916;51.504;7.416;2023-03-01T14:22:30;5.03;;;3.90;;
13687;SDS011;6916;51.504;7.416;2023-03-01T14:32:36;9.97;;;3.70;;
13687;SDS011;6916;51.504;7.416;2023-03-01T14:42:38;5.80;;;3.87;;
13687;SDS011;6916;51.504;7.416;2023-03-01T14:52:41;4.63;;;3.63;;
13687;SDS011;6916;51.504;7.416;2023-03-01T15:02:46;4.57;;;3.30;;
13687;SDS011;6916;51.504;7.416;2023-03-01T15:12:50;10.27;;;3.70;;
13687;SDS011;6916;51.504;7.416;2023-03-01T15:22:54;6.00;;;3.63;;
13687;SDS011;6916;51.504;7.416;2023-03-01T15:54:06;4.47;;;3.30;;
13687;SDS011;6916;51.504;7.416;2023-03-01T16:04:15;4.27;;;2.83;;
13687;SDS011;6916;51.504;7.416;2023-03-01T16:14:23;5.70;;;3.27;;
13687;SDS011;6916;51.504;7.416;2023-03-01T16:24:26;3.97;;;3.20;;
13687;SDS011;6916;51.504;7.416;2023-03-01T16:34:28;4.30;;;3.07;;
13687;SDS011;6916;51.504;7.416;2023-03-01T16:44:30;4.50;;;2.97;;
13687;SDS011;6916;51.504;7.416;2023-03-01T16:54:33;5.83;;;3.90;;
13687;SDS011;6916;51.504;7.416;2023-03-01T17:04:42;5.37;;;3.43;;
13687;SDS011;6916;51.504;7.416;2023-03-01T17:14:49;6.27;;;3.00;;
13687;SDS011;6916;51.504;7.416;2023-03-01T17:24:52;3.27;;;2.30;;
13687;SDS011;6916;51.504;7.416;2023-03-01T17:34:54;5.17;;;3.20;;
13687;SDS011;6916;51.504;7.416;2023-03-01T17:44:57;3.73;;;2.83;;
13687;SDS011;6916;51.504;7.416;2023-03-01T17:55:02;3.63;;;2.60;;
13687;SDS011;6916;51.504;7.416;2023-03-01T18:05:06;5.63;;;3.50;;
13687;SDS011;6916;51.504;7.416;2023-03-01T18:15:08;5.30;;;3.23;;
13687;SDS011;6916;51.504;7.416;2023-03-01T18:25:11;5.37;;;3.10;;
13687;SDS011;6916;51.504;7.416;2023-03-01T18:35:15;3.93;;;3.00;;
13687;SDS011;6916;51.504;7.416;2023-03-01T18:45:17;6.50;;;4.10;;
13687;SDS011;6916;51.504;7.416;2023-03-01T18:55:21;6.37;;;3.90;;
13687;SDS011;6916;51.504;7.416;2023-03-01T19:05:23;6.03;;;3.90;;
13687;SDS011;6916;51.504;7.416;2023-03-01T19:15:25;6.63;;;4.47;;
13687;SDS011;6916;51.504;7.416;2023-03-01T19:25:27;7.13;;;3.83;;
13687;SDS011;6916;51.504;7.416;2023-03-01T19:35:29;6.20;;;4.07;;
13687;SDS011;6916;51.504;7.416;2023-03-01T19:45:35;5.07;;;3.33;;
13687;SDS011;6916;51.504;7.416;2023-03-01T19:55:37;7.00;;;3.60;;
13687;SDS011;6916;51.504;7.416;2023-03-01T20:05:41;5.87;;;4.20;;
13687;SDS011;6916;51.504;7.416;2023-03-01T20:15:44;7.13;;;4.37;;
13687;SDS011;6916;51.504;7.416;2023-03-01T20:25:46;6.47;;;4.10;;
13687;SDS011;6916;51.504;7.416;2023-03-01T20:35:49;6.60;;;4.10;;
13687;SDS011;6916;51.504;7.416;2023-03-01T20:45:52;6.37;;;4.17;;
13687;SDS011;6916;51.504;7.416;2023-03-01T20:55:54;7.33;;;4.07;;
13687;SDS011;6916;51.504;7.416;2023-03-01T21:05:57;5.17;;;3.27;;
